Pays
Station

 

Conditions  météo  pour  Caernarfon  -  Royaume-Uni    Royaume-Uni

  
8 °C
    
 
 

METAR pour Caernarfon :

EGCK 191120Z 17014KT 9999 VCSH FEW018CB BKN029 08/06 Q0999

 

Voici le bulletin pour Caernarfon - Royaume-Uni.
 
Le bulletin a été fait il y a 7 minutes, à 11:20 UTC .
Le vent soufflait à la vitesse de 7.2 mètres par seconde de Sud (170°).
 
La température était de 8 °C, avec un point de rosée à 6 °C.
La pression atmosphérique était de 999 hPa.
L'humidité relative était de 87.2%.
 
Il y avait 1 à 2/8ème cumulonimbus de nébulosité à une hauteur de 549 mètres et 5 à 7/8ème de nébulosité à une hauteur de 884 mètres.
 
La visibilité globale était de supérieure à 10 kilomètres.
 
Actuellement averses de à proximité.

 
 
 

Pays :   A   B   C   D   E   F   G   H   I   J   K   L   M   N   O   P   Q   R   S   T   U   V   W   Y   Z

 

Partenaires :  Info Météo avec Met'info
Météo Marine avec MeteoMarine.net
Infos Site  |  Infos Légales  |  Crédits  |  Confidentialité
Contactez-nous  |  Ajouter aux favoris
© 2013-2018 METAR - Tous droits réservés